createdAt,value
2023-05-14T00:01:05.080Z,11.20
2023-05-14T00:03:33.244Z,9.40
2023-05-14T00:06:01.543Z,9.30
2023-05-14T00:08:29.724Z,9.90
2023-05-14T00:10:58.006Z,9.30
2023-05-14T00:13:26.806Z,7.90
2023-05-14T00:15:55.072Z,9.40
2023-05-14T00:18:23.213Z,9.80
2023-05-14T00:20:54.988Z,10.20
2023-05-14T00:23:24.003Z,9.50
2023-05-14T00:25:52.171Z,7.70
2023-05-14T00:28:21.119Z,9.30
2023-05-14T00:30:50.009Z,9.60
2023-05-14T00:33:18.229Z,9.30
2023-05-14T00:35:48.809Z,13.70
2023-05-14T00:38:19.582Z,9.30
2023-05-14T00:40:52.140Z,7.80
2023-05-14T00:43:21.748Z,12.70
2023-05-14T00:45:59.061Z,13.20
2023-05-14T00:48:27.551Z,15.50
2023-05-14T00:50:56.615Z,14.80
2023-05-14T00:53:25.028Z,15.00
2023-05-14T00:55:53.481Z,9.00
2023-05-14T00:58:22.951Z,10.70
2023-05-14T01:00:52.275Z,7.90
2023-05-14T01:03:20.630Z,12.40
2023-05-14T01:06:15.047Z,11.50
2023-05-14T01:09:07.720Z,9.20
2023-05-14T01:11:55.991Z,10.40
2023-05-14T01:14:45.171Z,11.00
2023-05-14T01:17:16.231Z,10.30
2023-05-14T01:19:45.771Z,11.20
2023-05-14T01:22:14.154Z,7.20
2023-05-14T01:24:42.406Z,10.20
2023-05-14T01:27:24.831Z,8.90
2023-05-14T01:30:02.688Z,9.20
2023-05-14T01:32:33.067Z,6.90
2023-05-14T01:35:02.123Z,7.10
2023-05-14T01:37:32.638Z,7.90
2023-05-14T01:40:01.631Z,9.80
2023-05-14T01:42:30.349Z,9.20
2023-05-14T01:44:59.571Z,7.40
2023-05-14T01:47:27.878Z,10.30
2023-05-14T01:49:56.196Z,8.30
2023-05-14T01:52:24.335Z,8.60
2023-05-14T01:55:01.194Z,9.40
2023-05-14T01:57:29.346Z,7.80
2023-05-14T01:59:58.157Z,10.50
2023-05-14T02:02:26.395Z,8.40
2023-05-14T02:04:55.409Z,11.90
2023-05-14T02:07:23.569Z,14.90
2023-05-14T02:09:53.631Z,10.00
2023-05-14T02:12:22.619Z,11.30
2023-05-14T02:14:51.008Z,10.40
2023-05-14T02:17:20.440Z,10.20
2023-05-14T02:19:49.306Z,13.20
2023-05-14T02:22:17.385Z,9.80
2023-05-14T02:24:45.741Z,11.70
2023-05-14T02:27:13.952Z,11.40
2023-05-14T02:29:42.119Z,9.40
2023-05-14T02:32:10.809Z,8.50
2023-05-14T02:34:39.077Z,9.90
2023-05-14T02:37:07.969Z,12.10
2023-05-14T02:39:36.106Z,8.40
2023-05-14T02:42:05.258Z,13.10
2023-05-14T02:44:33.383Z,14.70
2023-05-14T02:47:02.354Z,15.40
2023-05-14T02:49:30.589Z,9.70
2023-05-14T02:52:01.081Z,12.30
2023-05-14T02:54:29.556Z,11.60
2023-05-14T02:56:58.197Z,12.40
2023-05-14T02:59:27.960Z,9.10
2023-05-14T03:01:56.581Z,18.00
2023-05-14T03:04:25.178Z,18.10
2023-05-14T03:06:54.511Z,8.90
2023-05-14T03:09:22.673Z,10.10
2023-05-14T03:11:51.114Z,11.00
2023-05-14T03:14:19.186Z,13.00
2023-05-14T03:16:48.029Z,8.60
2023-05-14T03:19:16.309Z,9.00
2023-05-14T03:21:45.870Z,13.40
2023-05-14T03:24:14.043Z,13.90
2023-05-14T03:26:42.302Z,8.90
2023-05-14T03:29:10.961Z,15.30
2023-05-14T03:31:39.538Z,11.10
2023-05-14T03:34:07.656Z,14.70
2023-05-14T03:36:38.094Z,14.60
2023-05-14T03:39:09.807Z,12.50
2023-05-14T03:41:39.440Z,12.80
2023-05-14T03:44:07.622Z,9.40
2023-05-14T03:46:36.049Z,11.40
2023-05-14T03:49:04.436Z,11.80
2023-05-14T03:51:32.761Z,11.00
2023-05-14T03:54:02.072Z,8.70
2023-05-14T03:56:30.927Z,7.40
2023-05-14T03:58:59.117Z,12.30
2023-05-14T04:01:27.228Z,8.80
2023-05-14T04:03:55.697Z,14.20
2023-05-14T04:06:43.987Z,9.40
2023-05-14T04:09:12.170Z,12.50
2023-05-14T04:11:40.351Z,11.40
2023-05-14T04:14:08.754Z,12.30
2023-05-14T04:16:37.405Z,10.10
2023-05-14T04:19:06.547Z,11.60
2023-05-14T04:21:34.874Z,15.10
2023-05-14T04:24:02.999Z,12.70
2023-05-14T04:26:31.393Z,15.20
2023-05-14T04:29:03.160Z,11.00
2023-05-14T04:31:31.896Z,11.30
2023-05-14T04:34:00.031Z,12.90
2023-05-14T04:36:28.778Z,12.80
2023-05-14T04:38:57.034Z,13.30
2023-05-14T04:41:25.201Z,11.20
2023-05-14T04:43:56.872Z,13.70
2023-05-14T04:46:25.224Z,13.00
2023-05-14T04:48:53.509Z,15.90
2023-05-14T04:51:22.446Z,12.30
2023-05-14T04:53:50.604Z,12.40
2023-05-14T04:56:18.805Z,9.10
2023-05-14T04:58:47.005Z,17.00
2023-05-14T05:01:23.649Z,11.60
2023-05-14T05:03:51.927Z,15.80
2023-05-14T05:06:22.366Z,13.20
2023-05-14T05:08:50.433Z,11.50
2023-05-14T05:11:19.196Z,10.20
2023-05-14T05:13:47.261Z,8.60
2023-05-14T05:16:16.529Z,9.80
2023-05-14T05:18:45.969Z,8.90
2023-05-14T05:21:14.322Z,11.90
2023-05-14T05:23:42.478Z,14.60
2023-05-14T05:26:11.167Z,13.00
2023-05-14T05:28:39.236Z,12.60
2023-05-14T05:31:07.679Z,14.60
2023-05-14T05:33:36.056Z,13.00
2023-05-14T05:36:04.476Z,13.80
2023-05-14T05:38:32.627Z,10.90
2023-05-14T05:41:00.933Z,13.40
2023-05-14T05:43:29.184Z,15.80
2023-05-14T05:45:57.374Z,11.50
2023-05-14T05:48:25.639Z,17.00
2023-05-14T05:51:01.718Z,14.50
2023-05-14T05:53:29.859Z,14.50
2023-05-14T05:55:58.073Z,9.60
2023-05-14T05:58:26.471Z,9.00
2023-05-14T06:00:55.361Z,9.90
2023-05-14T06:03:23.670Z,11.00
2023-05-14T06:05:52.826Z,10.60
2023-05-14T06:08:21.224Z,10.90
2023-05-14T06:10:49.962Z,8.60
2023-05-14T06:13:18.163Z,9.20
2023-05-14T06:15:46.405Z,10.50
2023-05-14T06:18:14.571Z,11.50
2023-05-14T06:20:46.914Z,9.10
2023-05-14T06:23:15.126Z,7.80
2023-05-14T06:25:43.439Z,8.60
2023-05-14T06:28:11.600Z,9.20
2023-05-14T06:30:39.764Z,7.00
2023-05-14T06:33:10.707Z,11.20
2023-05-14T06:35:39.266Z,9.60
2023-05-14T06:38:07.502Z,7.10
2023-05-14T06:40:35.874Z,6.10
2023-05-14T06:43:06.848Z,7.50
2023-05-14T06:45:35.120Z,7.40
2023-05-14T06:48:13.454Z,9.40
2023-05-14T06:50:41.781Z,5.10
2023-05-14T06:53:09.992Z,8.80
2023-05-14T06:55:38.151Z,6.60
2023-05-14T06:58:07.557Z,7.80
2023-05-14T07:00:35.769Z,8.10
2023-05-14T07:03:04.226Z,5.50
2023-05-14T07:05:32.789Z,6.40
2023-05-14T07:08:00.982Z,5.50
2023-05-14T07:10:29.095Z,5.60
2023-05-14T07:12:57.319Z,7.20
2023-05-14T07:15:25.471Z,4.60
2023-05-14T07:17:53.766Z,6.60
2023-05-14T07:20:24.440Z,5.60
2023-05-14T07:22:53.166Z,5.00
2023-05-14T07:25:21.442Z,5.60
2023-05-14T07:27:49.624Z,5.80
2023-05-14T07:30:17.756Z,6.00
2023-05-14T07:32:46.345Z,5.60
2023-05-14T07:35:14.607Z,6.80
2023-05-14T07:37:43.164Z,6.00
2023-05-14T07:40:11.372Z,5.70
2023-05-14T07:42:39.506Z,5.90
2023-05-14T07:45:09.809Z,5.40
2023-05-14T07:47:38.132Z,7.00
2023-05-14T07:50:07.018Z,8.10
2023-05-14T07:52:35.188Z,6.70
2023-05-14T07:55:04.694Z,3.00
2023-05-14T07:57:40.640Z,5.10
2023-05-14T08:00:10.610Z,4.30
2023-05-14T08:02:42.860Z,5.70
2023-05-14T08:05:11.205Z,6.20
2023-05-14T08:07:41.792Z,6.20
2023-05-14T08:10:10.173Z,7.10
2023-05-14T08:12:40.327Z,5.30
2023-05-14T08:15:09.689Z,4.70
2023-05-14T08:17:40.515Z,4.60
2023-05-14T08:20:09.992Z,6.30
2023-05-14T08:22:41.655Z,5.80
2023-05-14T08:25:10.128Z,4.40
2023-05-14T08:27:40.196Z,4.30
2023-05-14T08:30:08.680Z,4.80
2023-05-14T08:32:38.767Z,8.00
2023-05-14T08:35:07.206Z,13.50
2023-05-14T08:37:35.405Z,7.20
2023-05-14T08:40:03.729Z,6.70
2023-05-14T08:42:34.544Z,5.40
2023-05-14T08:45:05.968Z,8.80
2023-05-14T08:47:34.531Z,4.90
2023-05-14T08:50:07.646Z,7.80
2023-05-14T08:52:38.248Z,6.30
2023-05-14T08:55:07.122Z,4.40
2023-05-14T08:57:37.581Z,4.10
2023-05-14T09:00:10.336Z,5.20
2023-05-14T09:02:42.604Z,4.20
2023-05-14T09:05:11.078Z,4.80
2023-05-14T09:07:43.086Z,2.70
2023-05-14T09:10:11.663Z,6.20
2023-05-14T09:12:41.724Z,3.70
2023-05-14T09:15:10.137Z,4.20
2023-05-14T09:17:38.891Z,3.10
2023-05-14T09:20:07.784Z,3.40
2023-05-14T09:22:36.547Z,2.40
2023-05-14T09:25:09.975Z,3.80
2023-05-14T09:30:07.636Z,4.40
2023-05-14T09:32:44.659Z,4.40
2023-05-14T09:35:34.463Z,5.70
2023-05-14T09:38:04.544Z,3.80
2023-05-14T09:40:32.745Z,6.30
2023-05-14T09:43:02.120Z,2.80
2023-05-14T09:45:30.239Z,7.00
2023-05-14T09:48:02.774Z,3.00
2023-05-14T09:50:31.592Z,5.50
2023-05-14T09:53:00.348Z,4.90
2023-05-14T09:55:29.294Z,3.40
2023-05-14T09:57:59.511Z,3.60
2023-05-14T10:00:27.746Z,2.80
2023-05-14T10:02:59.658Z,3.50
2023-05-14T10:05:29.016Z,2.90
2023-05-14T10:08:00.229Z,4.90
2023-05-14T10:10:30.632Z,7.90
2023-05-14T10:13:06.945Z,7.90
2023-05-14T10:15:43.209Z,6.00
2023-05-14T10:18:18.236Z,6.10
2023-05-14T10:21:01.277Z,3.20
2023-05-14T10:23:30.404Z,5.70
2023-05-14T10:25:59.872Z,5.30
2023-05-14T10:28:36.865Z,5.00
2023-05-14T10:31:05.130Z,4.00
2023-05-14T10:33:48.286Z,4.70
2023-05-14T10:36:18.607Z,4.40
2023-05-14T10:38:55.528Z,4.30
2023-05-14T10:41:23.750Z,5.30
2023-05-14T10:43:51.905Z,5.30
2023-05-14T10:46:21.192Z,5.30
2023-05-14T10:48:51.963Z,5.20
2023-05-14T10:51:23.263Z,6.30
2023-05-14T10:53:53.359Z,6.10
2023-05-14T10:56:21.759Z,3.20
2023-05-14T10:58:52.102Z,3.20
2023-05-14T11:01:24.508Z,6.10
2023-05-14T11:03:58.615Z,3.50
2023-05-14T11:06:27.712Z,3.90
2023-05-14T11:09:00.199Z,6.80
2023-05-14T11:11:28.609Z,5.70
2023-05-14T11:13:59.344Z,3.20
2023-05-14T11:16:31.236Z,4.20
2023-05-14T11:19:05.518Z,3.50
2023-05-14T11:21:34.049Z,4.70
2023-05-14T11:24:05.694Z,2.30
2023-05-14T11:26:34.502Z,4.50
2023-05-14T11:29:02.894Z,7.90
2023-05-14T11:31:31.369Z,4.80
2023-05-14T11:34:00.331Z,5.10
2023-05-14T11:36:28.496Z,3.50
2023-05-14T11:38:58.653Z,5.30
2023-05-14T11:41:28.277Z,3.20
2023-05-14T11:43:58.990Z,3.40
2023-05-14T11:46:28.789Z,8.30
2023-05-14T11:49:13.076Z,4.60
2023-05-14T11:51:41.415Z,3.00
2023-05-14T11:54:14.066Z,5.10
2023-05-14T11:56:42.242Z,3.40
2023-05-14T11:59:13.277Z,5.20
2023-05-14T12:01:41.664Z,6.70
2023-05-14T12:04:11.995Z,3.50
2023-05-14T12:06:40.598Z,4.10
2023-05-14T12:09:12.790Z,7.90
2023-05-14T12:11:40.954Z,4.70
2023-05-14T12:14:15.424Z,5.00
2023-05-14T12:16:48.046Z,6.60
2023-05-14T12:19:19.766Z,4.00
2023-05-14T12:21:51.238Z,4.00
2023-05-14T12:24:22.325Z,2.80
2023-05-14T12:26:51.108Z,2.50
2023-05-14T12:29:22.313Z,4.20
2023-05-14T12:31:51.128Z,6.00
2023-05-14T12:34:27.417Z,2.90
2023-05-14T12:36:55.706Z,2.10
2023-05-14T12:39:24.126Z,2.20
2023-05-14T12:41:52.242Z,5.70
2023-05-14T12:44:28.690Z,3.10
2023-05-14T12:46:57.935Z,4.40
2023-05-14T12:49:26.390Z,3.10
2023-05-14T12:52:07.704Z,7.10
2023-05-14T12:54:43.731Z,4.40
2023-05-14T12:57:12.094Z,3.20
2023-05-14T12:59:42.088Z,7.90
2023-05-14T13:02:10.976Z,7.70
2023-05-14T13:04:41.836Z,3.10
2023-05-14T13:07:10.440Z,4.00
2023-05-14T13:09:38.725Z,3.50
2023-05-14T13:12:07.184Z,3.70
2023-05-14T13:14:37.216Z,4.70
2023-05-14T13:17:05.868Z,2.70
2023-05-14T13:19:34.109Z,4.20
2023-05-14T13:22:02.513Z,3.40
2023-05-14T13:24:31.152Z,3.90
2023-05-14T13:26:59.222Z,8.00
2023-05-14T13:29:29.579Z,2.80
2023-05-14T13:31:57.832Z,3.10
2023-05-14T13:34:27.960Z,3.20
2023-05-14T13:36:56.571Z,4.00
2023-05-14T13:39:28.690Z,3.70
2023-05-14T13:41:57.168Z,4.50
2023-05-14T13:44:25.823Z,3.60
2023-05-14T13:46:54.364Z,4.50
2023-05-14T13:49:22.788Z,2.90
2023-05-14T13:51:51.191Z,2.50
2023-05-14T13:54:19.458Z,2.50
2023-05-14T13:56:47.624Z,2.50
2023-05-14T13:59:15.754Z,6.10
2023-05-14T14:01:43.972Z,3.30
2023-05-14T14:04:12.161Z,2.30
2023-05-14T14:06:40.370Z,5.50
2023-05-14T14:09:09.138Z,2.30
2023-05-14T14:11:37.470Z,5.00
2023-05-14T14:14:05.792Z,4.80
2023-05-14T14:16:34.034Z,4.80
2023-05-14T14:19:02.185Z,2.50
2023-05-14T14:21:32.075Z,3.70
2023-05-14T14:24:00.271Z,2.10
2023-05-14T14:26:29.430Z,2.00
2023-05-14T14:28:59.542Z,4.70
2023-05-14T14:31:27.787Z,2.30
2023-05-14T14:33:58.072Z,3.60
2023-05-14T14:36:26.169Z,5.00
2023-05-14T14:38:54.377Z,5.40
2023-05-14T14:41:23.793Z,2.60
2023-05-14T14:43:52.062Z,2.40
2023-05-14T14:46:20.232Z,2.40
2023-05-14T14:48:48.403Z,1.70
2023-05-14T14:51:16.586Z,4.90
2023-05-14T14:53:46.581Z,2.70
2023-05-14T14:56:14.760Z,4.70
2023-05-14T14:58:45.989Z,4.20
2023-05-14T15:01:14.198Z,4.50
2023-05-14T15:03:43.011Z,4.50
2023-05-14T15:06:12.485Z,6.00
2023-05-14T15:08:42.548Z,1.90
2023-05-14T15:11:10.890Z,7.40
2023-05-14T15:13:40.277Z,1.60
2023-05-14T15:16:08.742Z,6.90
2023-05-14T15:18:44.917Z,2.50
2023-05-14T15:21:13.141Z,3.80
2023-05-14T15:23:41.590Z,6.60
2023-05-14T15:26:09.772Z,2.70
2023-05-14T15:28:39.794Z,6.30
2023-05-14T15:31:08.172Z,3.50
2023-05-14T15:33:56.329Z,3.10
2023-05-14T15:36:24.972Z,9.30
2023-05-14T15:38:53.693Z,8.80
2023-05-14T15:41:22.953Z,5.60
2023-05-14T15:43:51.133Z,6.50
2023-05-14T15:46:19.397Z,4.50
2023-05-14T15:48:49.418Z,5.00
2023-05-14T15:51:17.627Z,2.30
2023-05-14T15:53:49.649Z,3.10
2023-05-14T15:56:17.934Z,3.00
2023-05-14T15:58:46.129Z,2.70
2023-05-14T16:01:14.395Z,4.80
2023-05-14T16:03:44.636Z,3.50
2023-05-14T16:06:12.855Z,6.80
2023-05-14T16:08:44.962Z,2.40
2023-05-14T16:11:13.084Z,2.30
2023-05-14T16:13:45.553Z,3.80
2023-05-14T16:16:13.908Z,1.90
2023-05-14T16:18:46.043Z,2.90
2023-05-14T16:21:14.297Z,6.00
2023-05-14T16:23:42.620Z,3.80
2023-05-14T16:26:11.294Z,6.80
2023-05-14T16:28:43.407Z,4.20
2023-05-14T16:31:11.619Z,4.80
2023-05-14T16:33:39.776Z,6.90
2023-05-14T16:36:07.958Z,3.90
2023-05-14T16:38:41.465Z,3.10
2023-05-14T16:41:16.384Z,3.60
2023-05-14T16:44:00.557Z,3.20
2023-05-14T16:46:29.496Z,4.30
2023-05-14T16:48:58.418Z,3.40
2023-05-14T16:51:26.465Z,3.10
2023-05-14T16:54:00.376Z,3.40
2023-05-14T16:56:29.726Z,2.60
2023-05-14T16:58:57.977Z,2.70
2023-05-14T17:01:26.425Z,6.10
2023-05-14T17:04:15.176Z,4.70
2023-05-14T17:06:43.395Z,7.00
2023-05-14T17:09:11.587Z,2.90
2023-05-14T17:11:39.718Z,2.30
2023-05-14T17:14:26.796Z,3.80
2023-05-14T17:16:55.160Z,2.30
2023-05-14T17:19:23.356Z,3.60
2023-05-14T17:21:51.500Z,4.60
2023-05-14T17:24:21.708Z,4.70
2023-05-14T17:26:49.907Z,5.10
2023-05-14T17:29:18.268Z,5.00
2023-05-14T17:31:46.916Z,5.00
2023-05-14T17:34:18.970Z,4.30
2023-05-14T17:36:47.412Z,5.90
2023-05-14T17:39:17.609Z,3.90
2023-05-14T17:41:45.955Z,2.80
2023-05-14T17:44:17.927Z,4.90
2023-05-14T17:46:46.241Z,7.00
2023-05-14T17:49:14.456Z,3.50
2023-05-14T17:51:43.076Z,3.90
2023-05-14T17:54:11.412Z,3.70
2023-05-14T17:56:39.914Z,2.70
2023-05-14T17:59:10.062Z,2.80
2023-05-14T18:01:38.477Z,2.40
2023-05-14T18:04:07.002Z,4.20
2023-05-14T18:06:35.360Z,2.20
2023-05-14T18:09:03.711Z,3.10
2023-05-14T18:11:34.976Z,5.40
2023-05-14T18:14:03.447Z,6.60
2023-05-14T18:16:31.718Z,7.70
2023-05-14T18:19:00.621Z,9.50
2023-05-14T18:21:28.894Z,5.50
2023-05-14T18:24:00.954Z,28.90
2023-05-14T18:26:29.163Z,28.60
2023-05-14T18:28:58.000Z,29.30
2023-05-14T18:31:28.138Z,32.90
2023-05-14T18:33:57.010Z,25.00
2023-05-14T18:36:25.211Z,38.40
2023-05-14T18:38:57.304Z,34.20
2023-05-14T18:41:25.548Z,20.30
2023-05-14T18:43:54.210Z,9.80
2023-05-14T18:46:22.553Z,10.10
2023-05-14T18:48:51.011Z,6.60
2023-05-14T18:51:19.130Z,7.60
2023-05-14T18:53:47.418Z,6.30
2023-05-14T18:56:15.563Z,7.00
2023-05-14T18:58:43.669Z,19.80
2023-05-14T19:01:12.032Z,23.80
2023-05-14T19:03:42.446Z,27.00
2023-05-14T19:06:10.818Z,36.20
2023-05-14T19:08:39.042Z,49.10
2023-05-14T19:11:10.197Z,26.60
2023-05-14T19:13:38.371Z,12.70
2023-05-14T19:16:14.911Z,5.90
2023-05-14T19:18:43.526Z,7.50
2023-05-14T19:21:15.805Z,10.50
2023-05-14T19:23:43.987Z,7.00
2023-05-14T19:26:12.171Z,7.10
2023-05-14T19:43:48.433Z,10.80
2023-05-14T19:46:17.362Z,7.20
2023-05-14T19:48:53.760Z,7.80
2023-05-14T19:51:21.928Z,9.60
2023-05-14T19:54:10.238Z,9.50
2023-05-14T19:56:38.607Z,12.50
2023-05-14T19:59:26.803Z,10.20
2023-05-14T20:01:55.006Z,7.00
2023-05-14T20:04:43.191Z,4.50
2023-05-14T20:07:12.129Z,4.70
2023-05-14T20:10:16.302Z,6.00
2023-05-14T20:12:44.394Z,4.90
2023-05-14T20:15:32.492Z,5.30
2023-05-14T20:18:01.323Z,4.10
2023-05-14T20:20:49.650Z,6.10
2023-05-14T20:23:17.972Z,6.90
2023-05-14T20:26:02.521Z,5.00
2023-05-14T20:28:30.830Z,8.00
2023-05-14T20:31:14.927Z,7.80
2023-05-14T20:36:13.771Z,7.40
2023-05-14T20:38:57.471Z,6.90
2023-05-14T20:41:26.500Z,2.90
2023-05-14T20:43:58.434Z,5.30
2023-05-14T20:46:26.571Z,7.80
2023-05-14T20:48:56.508Z,5.70
2023-05-14T20:51:24.725Z,4.20
2023-05-14T20:53:52.919Z,7.00
2023-05-14T20:56:21.465Z,5.10
2023-05-14T20:59:09.574Z,3.30
2023-05-14T21:01:37.835Z,4.70
2023-05-14T21:04:10.003Z,3.50
2023-05-14T21:06:38.277Z,3.50
2023-05-14T21:09:06.459Z,3.70
2023-05-14T21:11:34.595Z,3.80
2023-05-14T21:14:06.690Z,3.30
2023-05-14T21:16:34.879Z,8.30
2023-05-14T21:19:06.950Z,4.70
2023-05-14T21:21:35.259Z,3.60
2023-05-14T21:24:08.002Z,4.20
2023-05-14T21:26:37.412Z,4.30
2023-05-14T21:29:09.468Z,6.30
2023-05-14T21:31:37.690Z,4.90
2023-05-14T21:34:07.899Z,4.60
2023-05-14T21:36:36.120Z,4.40
2023-05-14T21:39:05.748Z,6.20
2023-05-14T21:41:34.007Z,3.90
2023-05-14T21:44:02.282Z,3.40
2023-05-14T21:46:31.031Z,3.80
2023-05-14T21:48:59.358Z,6.60
2023-05-14T21:51:27.604Z,5.00
2023-05-14T21:53:55.795Z,5.00
2023-05-14T21:56:24.362Z,3.80
2023-05-14T21:58:52.578Z,4.20
2023-05-14T22:01:28.550Z,3.20
2023-05-14T22:03:57.987Z,3.50
2023-05-14T22:06:31.456Z,3.70
2023-05-14T22:08:59.620Z,4.80
2023-05-14T22:11:28.112Z,6.20
2023-05-14T22:13:56.225Z,4.50
2023-05-14T22:16:33.055Z,6.50
2023-05-14T22:19:01.207Z,2.90
2023-05-14T22:21:31.490Z,4.90
2023-05-14T22:23:59.594Z,3.00
2023-05-14T22:26:35.824Z,6.90
2023-05-14T22:29:04.099Z,5.50
2023-05-14T22:31:32.548Z,6.70
2023-05-14T22:34:00.787Z,4.70
2023-05-14T22:36:32.958Z,3.80
2023-05-14T22:39:01.136Z,3.40
2023-05-14T22:41:30.002Z,8.70
2023-05-14T22:43:58.164Z,3.40
2023-05-14T22:46:28.429Z,6.00
2023-05-14T22:48:56.524Z,4.50
2023-05-14T22:51:33.324Z,6.00
2023-05-14T22:54:01.502Z,4.10
2023-05-14T22:56:31.760Z,4.60
2023-05-14T22:59:02.819Z,5.20
2023-05-14T23:01:39.816Z,7.70
2023-05-14T23:04:08.040Z,5.30
2023-05-14T23:06:40.114Z,4.50
2023-05-14T23:09:08.295Z,5.30
2023-05-14T23:11:40.258Z,6.20
2023-05-14T23:14:09.216Z,4.50
2023-05-14T23:16:41.484Z,5.20
2023-05-14T23:19:09.864Z,3.40
2023-05-14T23:21:58.437Z,5.60
2023-05-14T23:24:28.931Z,4.40
2023-05-14T23:26:57.108Z,4.90
2023-05-14T23:29:29.202Z,4.70
2023-05-14T23:31:57.356Z,6.40
2023-05-14T23:34:29.517Z,4.40
2023-05-14T23:36:57.728Z,4.10
2023-05-14T23:39:29.029Z,4.30
2023-05-14T23:41:57.222Z,5.10
2023-05-14T23:44:28.139Z,4.30
2023-05-14T23:46:56.358Z,3.50
2023-05-14T23:49:24.648Z,4.70
2023-05-14T23:51:52.970Z,5.70
2023-05-14T23:54:21.513Z,3.80
2023-05-14T23:56:57.686Z,4.80
2023-05-14T23:59:26.917Z,3.70
